WetterOnline ( http://www.wetteronline.de )

Wetter aktuell Trierweiler

Aktuelles Wetter: Trier/Petrisberg (273m)

6-stündlich | Neueste Meldungen
Ortszeit Temperatur Wetter
Do, 21.03. 19:00 12.9° C wolkig
Do, 21.03. 13:00 14.6° C wolkenlos
Do, 21.03. 7:00 0.5° C leicht bewölkt
Do, 21.03. 1:00 3.7° C leicht bewölkt
Mi, 20.03. 19:00 9.8° C wolkig
Mi, 20.03. 13:00 12.0° C wolkig
Mi, 20.03. 7:00 -1.4° C wolkenlos
Mi, 20.03. 1:00 1.1° C wolkenlos
Ortszeit Temperatur Wetter
Do, 21.03. 19:30 12.6° C wolkig
Do, 21.03. 19:20 12.6° C wolkig
Do, 21.03. 19:10 12.0° C wolkig
Do, 21.03. 19:00 12.9° C wolkig
Do, 21.03. 18:50 12.9° C wolkig
Do, 21.03. 18:40 13.3° C wolkig
Do, 21.03. 18:30 14.2° C wolkig
Do, 21.03. 18:00 15.1° C leicht bewölkt
Ortszeit Relative Feuchte Sichtweite
Do, 21.03. 19:00 30% 70 km
Do, 21.03. 13:00 33% 60 km
Do, 21.03. 7:00 87% 35 km
Do, 21.03. 1:00 72% 70 km
Mi, 20.03. 19:00 42% 70 km
Mi, 20.03. 13:00 41% 70 km
Mi, 20.03. 7:00 90% 60 km
Mi, 20.03. 1:00 78% 70 km
Ortszeit Relative Feuchte Sichtweite
Do, 21.03. 19:30 30% 70 km
Do, 21.03. 19:20 30% -
Do, 21.03. 19:10 32% -
Do, 21.03. 19:00 30% 70 km
Do, 21.03. 18:50 30% -
Do, 21.03. 18:40 29% -
Do, 21.03. 18:30 27% 70 km
Do, 21.03. 18:00 25% 70 km
Ortszeit Niederschlagsmenge Niederschlagsart
Do, 21.03. 19:00 0.0 l/m2 in 12 Std. -
Do, 21.03. 13:00 0.0 l/m2 in 6 Std. -
Do, 21.03. 7:00 0.0 l/m2 in 12 Std. -
Do, 21.03. 1:00 0.0 l/m2 in 6 Std. -
Mi, 20.03. 19:00 0.0 l/m2 in 12 Std. -
Mi, 20.03. 13:00 0.0 l/m2 in 6 Std. -
Mi, 20.03. 7:00 0.0 l/m2 in 12 Std. -
Mi, 20.03. 1:00 0.0 l/m2 in 6 Std. -
Ortszeit Niederschlagsmenge Niederschlagsart
Do, 21.03. 19:30 0.0 l/m2 in 1 Std. -
Do, 21.03. 19:20 keine Meldung -
Do, 21.03. 19:10 keine Meldung -
Do, 21.03. 19:00 0.0 l/m2 in 1 Std. -
Do, 21.03. 18:50 keine Meldung -
Do, 21.03. 18:40 keine Meldung -
Do, 21.03. 18:30 0.0 l/m2 in 1 Std. -
Do, 21.03. 18:00 0.0 l/m2 in 1 Std. -
Ortszeit Stärke Spitze Richtung
km/h Bft. km/h Grad Sektor
Do, 21.03. 19:00 14 3 29 50° NO
Do, 21.03. 13:00 14 3 29 20° N
Do, 21.03. 7:00 11 2 18 10° N
Do, 21.03. 1:00 4 1 11 60° NO
Mi, 20.03. 19:00 7 2 18 40° NO
Mi, 20.03. 13:00 6 1 15 300° NW
Mi, 20.03. 7:00 4 1 11 70° O
Mi, 20.03. 1:00 4 1 11 90° O
Ortszeit Stärke Spitze Richtung
km/h Bft. km/h Grad Sektor
Do, 21.03. 19:30 11 2 18 40° NO
Do, 21.03. 19:20 11 2 - 40° NO
Do, 21.03. 19:10 11 2 - 60° NO
Do, 21.03. 19:00 14 3 22 50° NO
Do, 21.03. 18:50 14 3 - 50° NO
Do, 21.03. 18:40 14 3 - 50° NO
Do, 21.03. 18:30 15 3 22 40° NO
Do, 21.03. 18:00 18 3 25 40° NO
Ortszeit Untergrenze Bedeckung Gattung
total tief tief mittel hoch
Do, 21.03. 19:00 10500 m 8/8 0/8 - - -
Do, 21.03. 13:00 10500 m 0/8 0/8 - - -
Do, 21.03. 7:00 9000 m 5/8 0/8 - - -
Do, 21.03. 1:00 7800 m 4/8 0/8 - - -
Mi, 20.03. 19:00 10500 m 7/8 0/8 - - -
Mi, 20.03. 13:00 6000 m 8/8 4/8 - - -
Mi, 20.03. 7:00 - 0/8 0/8 - - -
Mi, 20.03. 1:00 - 0/8 0/8 - - -
Ortszeit Bedeckungsgrad in Achtel und Wolkenuntergrenze
Do, 21.03. 19:30 8(10500m)
Do, 21.03. 19:20 8(10500m)
Do, 21.03. 19:10 8(10500m)
Do, 21.03. 19:00 1(10500m) 8(10500m)
Do, 21.03. 18:50 1(10500m) 8(10500m)
Do, 21.03. 18:40 1(10500m) 8(10500m)
Do, 21.03. 18:30 8(10500m) 8(10500m)
Do, 21.03. 18:00 8(10500m)
Ortszeit Luftdruck NN (hPa) Tendenz (hPa in 3 Std.)
Do, 21.03. 19:00 1031 - 0,4
Do, 21.03. 13:00 1033 - 1,2
Do, 21.03. 7:00 1036 + 0,5
Do, 21.03. 1:00 1036 - 0,1
Mi, 20.03. 19:00 1034 - 0,1
Mi, 20.03. 13:00 1035 - 0,1
Mi, 20.03. 7:00 1035 + 0,8
Mi, 20.03. 1:00 1034 + 1,1
Ortszeit Luftdruck NN (hPa) Tendenz (hPa in 3 Std.)
Do, 21.03. 19:30 1032 0,0
Do, 21.03. 19:20 1032 keine Meldung
Do, 21.03. 19:10 1032 keine Meldung
Do, 21.03. 19:00 1031 - 0,4
Do, 21.03. 18:50 1031 keine Meldung
Do, 21.03. 18:40 1031 keine Meldung
Do, 21.03. 18:30 1031 - 0,7
Do, 21.03. 18:00 1031 - 1,1
Ortszeit Schneehöhe (cm)
Do, 21.03. 19:00 0
Do, 21.03. 13:00 0
Do, 21.03. 7:00 0
Do, 21.03. 1:00 0
Mi, 20.03. 19:00 0
Mi, 20.03. 13:00 0
Mi, 20.03. 7:00 0
Mi, 20.03. 1:00 0
Ortszeit Schneehöhe (cm)
Do, 21.03. 19:30 0
Do, 21.03. 19:20 0
Do, 21.03. 19:10 0
Do, 21.03. 19:00 0
Do, 21.03. 18:50 0
Do, 21.03. 18:40 0
Do, 21.03. 18:30 0
Do, 21.03. 18:00 0
Link zu dieser Seite / Seite empfehlen

Das Wetter in ...